Time;durP1;ratioP1;P1;durP2;ratioP2;P2;SDS_P1;SDS_P2;PMS_P1;PMS_P2;Temp;Humidity;BMP_temperature;BMP_pressure;BME280_temperature;BME280_humidity;BME280_pressure;Samples;Min_cycle;Max_cycle;Signal;HPM_P1;HPM_P2
2022/12/01 00:01:09;;;;;;;2.80;1.20;;;;;;;8.97;79.70;99423.44;6245767;22;20658;-91
2022/12/01 00:03:35;;;;;;;2.77;1.37;;;;;;;8.98;80.19;99426.00;6246221;22;20149;-90
2022/12/01 00:06:14;;;;;;;4.60;2.03;;;;;;;9.09;79.88;99431.59;6246032;22;20217;-91
2022/12/01 00:08:40;;;;;;;2.93;1.53;;;;;;;9.13;79.63;99435.81;6244993;23;20228;-90
2022/12/01 00:11:13;;;;;;;3.73;1.70;;;;;;;9.02;79.77;99432.78;6245261;23;20189;-91
2022/12/01 00:13:38;;;;;;;2.53;1.60;;;;;;;9.04;80.65;99428.34;6246453;22;20133;-91
2022/12/01 00:16:15;;;;;;;11.93;1.87;;;;;;;9.01;80.02;99423.25;6245196;23;20220;-91
2022/12/01 00:18:41;;;;;;;2.10;1.40;;;;;;;9.02;80.11;99427.56;6244871;23;20159;-91
2022/12/01 00:21:18;;;;;;;1.80;1.33;;;;;;;9.04;79.96;99424.91;6244643;23;20225;-90
2022/12/01 00:23:46;;;;;;;3.90;1.47;;;;;;;9.10;79.73;99419.38;6246395;22;20215;-91
2022/12/01 00:26:12;;;;;;;4.23;1.53;;;;;;;9.03;80.25;99415.34;6244740;23;20160;-91
2022/12/01 00:28:38;;;;;;;5.60;1.80;;;;;;;8.90;80.63;99415.00;6244862;23;20164;-91
2022/12/01 00:31:10;;;;;;;3.17;1.43;;;;;;;8.84;81.26;99423.09;6245141;23;20152;-91
2022/12/01 00:33:37;;;;;;;2.47;1.23;;;;;;;8.79;81.74;99424.19;6245804;23;20155;-90
2022/12/01 00:36:04;;;;;;;3.80;1.80;;;;;;;8.55;82.36;99420.78;6246249;22;20151;-90
2022/12/01 00:38:31;;;;;;;1.97;1.03;;;;;;;8.69;82.09;99417.63;6246515;22;20148;-91
2022/12/01 00:40:56;;;;;;;2.90;1.40;;;;;;;8.59;82.66;99428.44;6246102;22;20149;-90
2022/12/01 00:43:23;;;;;;;2.47;1.40;;;;;;;8.53;83.11;99415.66;6245927;22;20178;-91
2022/12/01 00:45:48;;;;;;;6.07;1.90;;;;;;;8.76;82.34;99406.88;6246606;22;20148;-89
2022/12/01 00:48:14;;;;;;;3.50;1.80;;;;;;;8.82;81.70;99414.47;6244658;23;20165;-91
2022/12/01 00:50:40;;;;;;;3.63;2.00;;;;;;;8.81;81.54;99412.75;6244647;23;20182;-90
2022/12/01 00:53:06;;;;;;;3.93;1.77;;;;;;;8.90;81.54;99412.38;6246177;22;20158;-90
2022/12/01 00:55:31;;;;;;;9.13;1.90;;;;;;;9.01;80.58;99412.81;6244667;23;20220;-90
2022/12/01 00:57:57;;;;;;;2.53;1.40;;;;;;;8.84;81.02;99412.63;6245626;23;20164;-91
2022/12/01 01:00:22;;;;;;;3.80;1.73;;;;;;;8.85;81.37;99403.88;6245179;23;20161;-91
2022/12/01 01:02:47;;;;;;;5.87;2.50;;;;;;;8.98;81.11;99397.25;6245024;23;20181;-91
2022/12/01 01:05:13;;;;;;;4.93;2.27;;;;;;;9.06;80.86;99400.38;6246225;22;20145;-91
2022/12/01 01:07:38;;;;;;;3.07;1.83;;;;;;;8.93;80.69;99388.75;6246154;22;20449;-90
2022/12/01 01:10:04;;;;;;;4.50;2.20;;;;;;;8.95;81.11;99399.13;6246203;22;20156;-91
2022/12/01 01:12:30;;;;;;;4.53;1.47;;;;;;;9.03;80.64;99395.28;6246176;23;20148;-91
2022/12/01 01:14:55;;;;;;;3.23;1.90;;;;;;;9.06;79.95;99392.53;6246564;23;20156;-91
2022/12/01 01:17:21;;;;;;;6.87;2.30;;;;;;;9.04;80.23;99386.50;6247676;22;20158;-90
2022/12/01 01:19:46;;;;;;;4.53;2.00;;;;;;;8.96;80.21;99388.59;6246868;23;20175;-91
2022/12/01 01:22:12;;;;;;;5.83;2.00;;;;;;;9.05;80.11;99388.22;6247765;23;20601;-90
2022/12/01 01:24:37;;;;;;;5.83;2.40;;;;;;;9.01;80.53;99377.94;6247652;23;20153;-91
2022/12/01 01:27:04;;;;;;;7.33;2.63;;;;;;;9.09;80.58;99381.91;6246866;23;20586;-91
2022/12/01 01:29:30;;;;;;;4.10;2.53;;;;;;;9.16;79.77;99383.38;6247589;22;20147;-91
2022/12/01 01:31:55;;;;;;;5.23;2.27;;;;;;;9.11;80.19;99392.34;6247604;22;20164;-91
2022/12/01 01:34:21;;;;;;;4.60;2.57;;;;;;;9.01;80.38;99377.94;6247929;22;20152;-90
2022/12/01 01:36:47;;;;;;;5.50;2.93;;;;;;;8.90;80.98;99380.16;6246377;23;20241;-92
2022/12/01 01:39:13;;;;;;;6.57;2.80;;;;;;;8.98;80.35;99378.94;6246700;23;20212;-90
2022/12/01 01:41:38;;;;;;;3.40;1.90;;;;;;;8.90;80.85;99380.16;6246408;23;20187;-90
2022/12/01 01:44:42;;;;;;;7.50;2.60;;;;;;;8.95;80.38;99372.97;6246798;23;20237;-91
2022/12/01 01:47:07;;;;;;;5.20;2.77;;;;;;;8.75;81.18;99363.38;6247208;23;20190;-91
2022/12/01 01:49:33;;;;;;;4.93;2.27;;;;;;;8.73;82.09;99359.09;6247460;22;20148;-92
2022/12/01 01:51:59;;;;;;;5.03;2.93;;;;;;;8.68;82.25;99361.91;6247697;22;20146;-91
2022/12/01 01:54:34;;;;;;;3.83;2.30;;;;;;;8.75;82.18;99355.53;6247657;22;20150;-91
2022/12/01 01:57:02;;;;;;;6.63;3.17;;;;;;;8.54;82.55;99356.41;6246363;23;20144;-91
2022/12/01 01:59:33;;;;;;;7.40;3.03;;;;;;;8.65;82.61;99354.19;6247429;22;20149;-91
2022/12/01 02:02:04;;;;;;;6.43;2.97;;;;;;;8.84;81.65;99360.34;6248055;22;20236;-91
2022/12/01 02:04:33;;;;;;;7.80;2.20;;;;;;;8.68;81.98;99361.91;6246272;23;20149;-91
2022/12/01 02:06:59;;;;;;;5.50;2.67;;;;;;;8.60;82.88;99350.91;6247206;22;20562;-92
2022/12/01 02:09:24;;;;;;;5.87;2.60;;;;;;;8.56;83.29;99354.59;6245979;23;20161;-92
2022/12/01 02:12:11;;;;;;;5.47;2.93;;;;;;;8.53;83.44;99352.09;6247207;22;20142;-91
2022/12/01 02:15:21;;;;;;;4.97;2.60;;;;;;;8.57;82.46;99357.13;6247563;22;20144;-90
2022/12/01 02:18:13;;;;;;;6.47;2.17;;;;;;;8.57;83.30;99349.28;6217154;22;20163;-91
2022/12/01 02:21:01;;;;;;;6.33;3.03;;;;;;;8.51;82.86;99351.31;6265693;22;20588;-91
2022/12/01 02:23:45;;;;;;;7.13;2.97;;;;;;;8.47;82.87;99339.25;6250860;22;20161;-91
2022/12/01 02:26:48;;;;;;;5.77;3.10;;;;;;;8.70;82.89;99341.78;6252058;22;20496;-92
2022/12/01 02:29:55;;;;;;;3.63;2.33;;;;;;;8.64;82.21;99339.44;6251269;22;20176;-91
2022/12/01 02:32:59;;;;;;;10.67;1.83;;;;;;;8.63;82.09;99342.94;6252092;22;20214;-91
2022/12/01 02:35:34;;;;;;;5.17;2.43;;;;;;;8.75;81.79;99339.84;6200786;22;20156;-91
2022/12/01 02:38:22;;;;;;;3.80;2.33;;;;;;;8.84;81.38;99335.97;6278571;22;20128;-90
2022/12/01 02:41:02;;;;;;;3.60;1.83;;;;;;;8.63;82.19;99340.34;6277654;22;20206;-91
2022/12/01 02:43:34;;;;;;;3.77;2.20;;;;;;;8.75;81.19;99337.25;6278237;22;20200;-92
2022/12/01 02:46:15;;;;;;;5.20;2.27;;;;;;;8.80;80.94;99343.13;6250642;22;20556;-91
2022/12/01 02:48:45;;;;;;;5.80;2.70;;;;;;;8.81;81.08;99347.41;6277819;22;20510;-91
2022/12/01 02:51:38;;;;;;;7.40;2.27;;;;;;;8.82;81.31;99345.66;6250849;22;20472;-91
2022/12/01 02:54:05;;;;;;;5.70;2.30;;;;;;;8.94;80.57;99339.91;6271298;22;20162;-91
2022/12/01 02:56:30;;;;;;;7.67;2.20;;;;;;;8.71;80.97;99337.41;6277403;22;20151;-90
2022/12/01 02:58:56;;;;;;;5.60;2.17;;;;;;;8.77;81.40;99343.25;6250813;22;20171;-90
2022/12/01 03:01:37;;;;;;;8.87;2.40;;;;;;;8.91;80.84;99335.66;6250469;22;20187;-91
2022/12/01 03:04:24;;;;;;;4.67;1.93;;;;;;;8.86;80.68;99326.31;6277741;22;20143;-91
2022/12/01 03:07:01;;;;;;;3.57;2.47;;;;;;;8.85;80.87;99343.78;6250588;22;20247;-91
2022/12/01 03:09:54;;;;;;;4.03;2.00;;;;;;;9.01;79.69;99336.97;6277612;22;20178;-91
2022/12/01 03:12:35;;;;;;;5.13;2.20;;;;;;;8.97;80.16;99330.16;6277683;22;20233;-91
2022/12/01 03:15:09;;;;;;;7.30;2.20;;;;;;;9.05;79.40;99335.06;6277285;22;20164;-91
2022/12/01 03:17:51;;;;;;;3.80;2.03;;;;;;;8.65;80.05;99334.13;6250605;22;20144;-92
2022/12/01 03:20:31;;;;;;;4.37;2.40;;;;;;;8.63;80.38;99335.13;6245132;23;20698;-91
2022/12/01 03:23:08;;;;;;;4.37;2.57;;;;;;;8.47;81.70;99340.13;6245199;23;20184;-90
2022/12/01 03:25:36;;;;;;;4.73;1.97;;;;;;;8.61;81.38;99342.19;6246853;22;20129;-91
2022/12/01 03:28:04;;;;;;;8.60;2.33;;;;;;;8.65;81.50;99348.97;6246471;22;20147;-91
2022/12/01 03:30:34;;;;;;;4.17;2.10;;;;;;;8.67;80.82;99336.69;6245674;23;20155;-90
2022/12/01 03:33:08;;;;;;;3.27;1.73;;;;;;;8.63;80.67;99337.72;6246501;22;20191;-90
2022/12/01 03:35:58;;;;;;;8.13;2.23;;;;;;;8.71;80.56;99330.41;6245916;22;20133;-91
2022/12/01 03:38:25;;;;;;;3.97;1.70;;;;;;;8.62;80.43;99333.44;6246851;22;20212;-91
2022/12/01 03:40:57;;;;;;;4.67;2.00;;;;;;;8.52;81.04;99332.09;6245021;23;20154;-91
2022/12/01 03:43:29;;;;;;;3.97;2.07;;;;;;;8.59;80.94;99336.16;6245199;23;20278;-92
2022/12/01 03:46:09;;;;;;;4.63;2.27;;;;;;;8.59;81.19;99338.78;6246676;22;20521;-92
2022/12/01 03:48:36;;;;;;;2.40;1.47;;;;;;;8.56;80.84;99347.59;6246755;22;20465;-91
2022/12/01 03:51:25;;;;;;;3.80;1.60;;;;;;;8.61;80.55;99344.78;6246266;22;20175;-90
2022/12/01 03:54:09;;;;;;;7.47;2.83;;;;;;;8.45;82.19;99346.31;6247228;23;20133;-90
2022/12/01 03:56:45;;;;;;;5.03;2.47;;;;;;;8.48;81.17;99343.59;6245459;23;20170;-90
2022/12/01 03:59:12;;;;;;;4.60;2.53;;;;;;;8.46;81.46;99350.66;6246570;22;20248;-91
2022/12/01 04:01:38;;;;;;;10.03;2.13;;;;;;;8.39;81.63;99336.97;6246100;22;20221;-90
2022/12/01 04:04:10;;;;;;;3.87;1.40;;;;;;;8.49;81.56;99347.91;6246532;22;20145;-91
2022/12/01 04:06:37;;;;;;;3.83;1.93;;;;;;;8.38;81.64;99355.34;6246157;23;20563;-91
2022/12/01 04:09:03;;;;;;;5.30;2.13;;;;;;;8.38;82.16;99342.28;6246492;22;20147;-92
2022/12/01 04:14:13;;;;;;;3.67;2.17;;;;;;;8.39;82.46;99346.56;6246282;23;20176;-90
2022/12/01 04:16:39;;;;;;;4.63;1.93;;;;;;;8.44;81.42;99342.84;6246366;22;20145;-91
2022/12/01 04:19:04;;;;;;;5.03;2.10;;;;;;;8.53;81.57;99342.50;6249611;22;20178;-91
2022/12/01 04:21:30;;;;;;;4.43;1.33;;;;;;;8.47;81.23;99350.56;6277157;22;20164;-91
2022/12/01 04:24:01;;;;;;;4.23;1.60;;;;;;;8.43;81.06;99348.16;6250491;22;20592;-91
2022/12/01 04:26:33;;;;;;;3.90;1.63;;;;;;;8.16;83.13;99350.06;6250175;22;20577;-92
2022/12/01 04:29:00;;;;;;;3.03;1.40;;;;;;;8.28;82.57;99356.63;6250070;22;20487;-92
2022/12/01 04:31:25;;;;;;;3.03;1.27;;;;;;;8.07;83.01;99358.25;6250338;22;20153;-92
2022/12/01 04:33:52;;;;;;;2.00;1.20;;;;;;;8.05;83.36;99353.09;6276736;22;20150;-91
2022/12/01 04:36:18;;;;;;;2.23;1.20;;;;;;;7.87;83.47;99353.81;6276712;22;20557;-91
2022/12/01 04:38:43;;;;;;;2.07;1.00;;;;;;;7.94;84.06;99368.31;6276704;22;20145;-92
2022/12/01 04:41:13;;;;;;;2.63;1.20;;;;;;;7.85;84.66;99368.69;6276737;22;20152;-91
2022/12/01 04:43:39;;;;;;;2.10;0.97;;;;;;;7.95;83.50;99359.59;6276962;22;20145;-91
2022/12/01 04:46:05;;;;;;;4.13;1.13;;;;;;;7.83;84.80;99362.69;6249986;22;20594;-91
2022/12/01 04:48:30;;;;;;;2.47;0.90;;;;;;;7.89;83.89;99367.63;6252135;22;20183;-91
2022/12/01 04:50:56;;;;;;;3.77;1.10;;;;;;;7.97;84.13;99367.34;6278809;22;20186;-91
2022/12/01 04:53:22;;;;;;;1.43;0.80;;;;;;;7.90;83.97;99369.34;6279124;22;20155;-91
2022/12/01 04:55:47;;;;;;;1.00;0.70;;;;;;;7.95;83.73;99372.63;6252133;22;20166;-91
2022/12/01 04:58:13;;;;;;;2.00;0.97;;;;;;;7.98;83.57;99369.06;6278685;22;20219;-91
2022/12/01 05:00:38;;;;;;;3.57;0.87;;;;;;;7.91;83.37;99367.59;6278561;22;20582;-91
2022/12/01 05:03:03;;;;;;;2.27;0.90;;;;;;;8.09;83.50;99376.47;6278410;22;20172;-92
2022/12/01 05:05:29;;;;;;;2.47;1.10;;;;;;;8.03;83.61;99375.81;6279682;22;20144;-91
2022/12/01 05:07:57;;;;;;;1.13;0.60;;;;;;;7.87;84.57;99369.47;6252209;22;20231;-91
2022/12/01 05:10:22;;;;;;;2.63;1.00;;;;;;;8.04;83.05;99369.66;6251764;22;20159;-91
2022/12/01 05:12:48;;;;;;;1.60;0.70;;;;;;;7.88;83.45;99371.19;6252334;22;20152;-92
2022/12/01 05:15:14;;;;;;;2.57;1.43;;;;;;;8.07;83.61;99375.69;6251890;22;20227;-92
2022/12/01 05:17:40;;;;;;;2.20;1.13;;;;;;;8.10;83.15;99372.97;6252233;22;20232;-91
2022/12/01 05:22:58;;;;;;;1.33;0.80;;;;;;;8.10;82.67;99375.59;6278658;22;20245;-91
2022/12/01 05:25:23;;;;;;;0.80;0.60;;;;;;;8.14;82.09;99379.75;6251986;22;20198;-91
2022/12/01 05:27:48;;;;;;;1.47;0.80;;;;;;;8.22;82.04;99375.09;6253102;22;20253;-91
2022/12/01 05:30:14;;;;;;;1.17;0.63;;;;;;;8.20;81.82;99374.31;6279039;22;20170;-91
2022/12/01 05:32:39;;;;;;;1.57;0.67;;;;;;;7.90;82.88;99371.09;6278651;22;20516;-92
2022/12/01 05:35:05;;;;;;;0.93;0.47;;;;;;;7.91;83.38;99376.25;6278397;22;20638;-92
2022/12/01 05:37:33;;;;;;;2.23;0.80;;;;;;;7.95;83.09;99372.63;6251749;22;20148;-91
2022/12/01 05:39:59;;;;;;;2.37;1.23;;;;;;;7.98;83.19;99376.88;6251549;22;20153;-92
2022/12/01 05:42:24;;;;;;;2.23;1.30;;;;;;;7.95;83.75;99377.84;6278476;22;20498;-91
2022/12/01 05:44:50;;;;;;;1.77;1.03;;;;;;;7.97;83.37;99385.63;6278801;22;20149;-92
2022/12/01 05:47:15;;;;;;;2.17;0.67;;;;;;;8.00;82.87;99383.75;6251601;22;20184;-92
2022/12/01 05:49:41;;;;;;;3.30;1.47;;;;;;;7.95;84.38;99383.06;6251623;22;20568;-92
2022/12/01 05:52:06;;;;;;;2.63;1.23;;;;;;;8.28;82.77;99387.94;6278156;22;20145;-91
2022/12/01 05:54:31;;;;;;;3.77;1.43;;;;;;;8.32;82.13;99377.31;6278640;22;20170;-92
2022/12/01 05:56:57;;;;;;;3.83;1.00;;;;;;;8.26;82.20;99389.72;6251585;22;20170;-91
2022/12/01 05:59:22;;;;;;;1.67;1.17;;;;;;;8.36;81.54;99383.28;6250998;22;20160;-91
2022/12/01 06:01:48;;;;;;;2.63;1.47;;;;;;;8.35;81.51;99384.19;6251729;22;20233;-92
2022/12/01 06:04:13;;;;;;;2.10;0.80;;;;;;;8.31;81.08;99396.50;6252522;22;20154;-92
2022/12/01 06:06:39;;;;;;;2.23;1.07;;;;;;;8.21;81.46;99384.69;6278401;22;20557;-91
2022/12/01 06:09:04;;;;;;;3.33;1.00;;;;;;;8.18;82.24;99382.19;6252323;22;20187;-92
2022/12/01 06:11:30;;;;;;;1.83;0.97;;;;;;;8.19;82.04;99391.72;6277924;22;20599;-92
2022/12/01 06:13:55;;;;;;;1.03;0.80;;;;;;;8.25;81.80;99395.88;6251668;22;20156;-91
2022/12/01 06:16:21;;;;;;;2.87;0.80;;;;;;;8.08;81.56;99399.13;6251548;22;20148;-91
2022/12/01 06:18:46;;;;;;;1.27;0.77;;;;;;;8.21;81.95;99402.09;6278398;22;20626;-91
2022/12/01 06:21:12;;;;;;;1.50;0.80;;;;;;;8.13;81.81;99398.94;6251024;22;20164;-91
2022/12/01 06:23:37;;;;;;;3.63;1.37;;;;;;;8.16;81.23;99393.59;6251381;22;20191;-90
2022/12/01 06:26:03;;;;;;;3.77;1.67;;;;;;;8.24;81.03;99394.16;6251077;22;20161;-90
2022/12/01 06:28:28;;;;;;;4.83;1.57;;;;;;;8.15;81.72;99397.97;6251383;22;20156;-90
2022/12/01 06:30:54;;;;;;;1.47;1.10;;;;;;;8.29;80.98;99395.72;6277665;22;20150;-90
2022/12/01 06:33:19;;;;;;;2.20;1.00;;;;;;;8.37;80.37;99395.41;6250847;22;20150;-90
2022/12/01 06:35:45;;;;;;;2.60;0.80;;;;;;;8.24;81.33;99402.84;6252266;22;20240;-90
2022/12/01 06:38:10;;;;;;;2.13;1.13;;;;;;;8.21;80.62;99400.34;6250859;22;20564;-90
2022/12/01 06:40:36;;;;;;;7.10;1.30;;;;;;;8.19;81.52;99403.94;6250816;22;20520;-90
2022/12/01 06:43:01;;;;;;;3.20;1.40;;;;;;;8.13;81.30;99398.94;6251116;22;20249;-91
2022/12/01 06:45:28;;;;;;;2.57;1.13;;;;;;;8.07;81.46;99406.09;6250944;22;20244;-90
2022/12/01 06:47:54;;;;;;;2.00;1.07;;;;;;;8.14;81.49;99411.09;6277491;22;20549;-90
2022/12/01 06:50:20;;;;;;;4.40;1.10;;;;;;;7.95;82.05;99400.50;6277507;22;20284;-91
2022/12/01 06:52:45;;;;;;;1.57;0.80;;;;;;;7.93;81.28;99390.13;6250849;22;20237;-92
2022/12/01 06:55:11;;;;;;;3.93;0.97;;;;;;;7.72;82.52;99403.97;6251421;22;20517;-90
2022/12/01 06:57:36;;;;;;;1.60;0.67;;;;;;;7.64;83.15;99407.75;6250920;22;20159;-92
2022/12/01 07:00:03;;;;;;;1.97;0.77;;;;;;;7.74;82.85;99404.75;6251124;22;20163;-91
2022/12/01 07:02:28;;;;;;;3.43;1.00;;;;;;;7.56;83.82;99400.22;6278236;22;20571;-90
2022/12/01 07:04:54;;;;;;;2.37;0.43;;;;;;;7.45;83.76;99397.13;6250678;22;20156;-91
2022/12/01 07:07:19;;;;;;;1.07;0.50;;;;;;;7.49;83.73;99401.34;6250552;22;20214;-90
2022/12/01 07:09:45;;;;;;;1.10;0.63;;;;;;;7.46;83.88;99398.84;6278192;22;20209;-90
2022/12/01 07:12:10;;;;;;;0.60;0.30;;;;;;;7.51;84.31;99407.34;6277235;22;20144;-90
2022/12/01 07:14:36;;;;;;;0.87;0.67;;;;;;;7.69;83.46;99411.91;6277560;22;20159;-90
2022/12/01 07:17:02;;;;;;;1.27;0.63;;;;;;;7.72;82.26;99410.94;6277863;22;20208;-90
2022/12/01 07:19:27;;;;;;;0.73;0.40;;;;;;;7.62;82.39;99402.59;6277203;22;20179;-90
2022/12/01 07:21:53;;;;;;;0.87;0.63;;;;;;;7.68;83.51;99404.97;6277009;22;20199;-90
2022/12/01 07:24:18;;;;;;;1.77;0.50;;;;;;;7.71;82.25;99402.25;6277123;22;20223;-90
2022/12/01 07:26:45;;;;;;;2.33;0.73;;;;;;;7.66;82.90;99401.56;6276943;22;20183;-90
2022/12/01 07:29:11;;;;;;;1.87;0.83;;;;;;;7.51;84.29;99402.13;6251510;22;20156;-91
2022/12/01 07:31:37;;;;;;;2.03;0.50;;;;;;;7.84;82.87;99400.88;6277730;22;20155;-91
2022/12/01 07:34:03;;;;;;;1.40;0.63;;;;;;;8.02;81.82;99394.97;6277265;22;20145;-90
2022/12/01 07:36:29;;;;;;;1.90;0.63;;;;;;;8.04;82.17;99398.38;6250239;22;20156;-90
2022/12/01 07:38:54;;;;;;;1.83;0.87;;;;;;;7.76;82.94;99389.88;6277446;22;20213;-91
2022/12/01 07:41:20;;;;;;;0.80;0.60;;;;;;;7.79;83.46;99394.13;6276875;22;20251;-91
2022/12/01 07:43:46;;;;;;;0.37;0.37;;;;;;;7.82;82.10;99394.88;6276911;22;20169;-91
2022/12/01 07:46:14;;;;;;;1.80;0.50;;;;;;;8.01;82.56;99392.44;6250291;22;20652;-90
2022/12/01 07:48:40;;;;;;;0.43;0.37;;;;;;;7.96;82.33;99395.22;6276866;22;20168;-90
2022/12/01 07:51:08;;;;;;;1.03;0.70;;;;;;;7.77;83.23;99383.78;6250337;22;20591;-91
2022/12/01 07:53:34;;;;;;;1.37;0.60;;;;;;;7.52;83.64;99397.78;6276974;22;20149;-91
2022/12/01 07:56:00;;;;;;;5.00;1.07;;;;;;;7.64;83.98;99392.09;6250184;22;20166;-90
2022/12/01 07:58:25;;;;;;;4.00;0.70;;;;;;;7.75;83.39;99388.19;6276899;22;20148;-91
2022/12/01 08:00:51;;;;;;;1.10;0.70;;;;;;;7.83;82.91;99399.22;6250040;22;20156;-90
2022/12/01 08:03:17;;;;;;;1.20;0.50;;;;;;;7.68;82.96;99391.94;6276698;22;20219;-90
2022/12/01 08:05:42;;;;;;;1.50;0.70;;;;;;;7.72;83.42;99396.13;6276880;22;20235;-90
2022/12/01 08:08:08;;;;;;;1.10;0.70;;;;;;;7.76;83.65;99391.63;6276713;22;20226;-90
2022/12/01 08:10:33;;;;;;;1.40;0.80;;;;;;;7.79;83.35;99394.13;6276721;22;20144;-90
2022/12/01 08:12:59;;;;;;;0.80;0.57;;;;;;;7.92;82.44;99403.22;6250074;22;20229;-91
2022/12/01 08:15:24;;;;;;;1.10;0.70;;;;;;;7.87;82.19;99399.94;6277095;22;20145;-90
2022/12/01 08:17:49;;;;;;;2.60;0.80;;;;;;;7.62;83.64;99400.00;6249991;22;20157;-91
2022/12/01 08:20:15;;;;;;;1.40;0.93;;;;;;;7.87;83.68;99392.94;6245408;23;20200;-90
2022/12/01 08:22:41;;;;;;;0.77;0.60;;;;;;;8.07;82.73;99391.34;6246001;22;20268;-90
2022/12/01 08:25:07;;;;;;;3.03;0.90;;;;;;;7.94;82.91;99390.94;6244917;23;20235;-91
2022/12/01 08:27:33;;;;;;;2.23;1.00;;;;;;;7.88;83.10;99392.06;6245204;23;20153;-91
2022/12/01 08:29:59;;;;;;;2.27;1.00;;;;;;;7.71;83.77;99390.97;6244942;23;20157;-91
2022/12/01 08:32:25;;;;;;;1.27;0.83;;;;;;;7.74;84.20;99390.84;6246058;22;20453;-90
2022/12/01 08:34:50;;;;;;;2.40;0.90;;;;;;;7.84;83.47;99385.22;6246049;22;20530;-90
2022/12/01 08:37:16;;;;;;;2.50;1.00;;;;;;;8.02;82.61;99392.38;6245944;22;20159;-90
2022/12/01 08:39:41;;;;;;;6.57;0.80;;;;;;;8.04;82.12;99385.31;6246597;22;20228;-91
2022/12/01 08:42:06;;;;;;;5.60;1.17;;;;;;;7.99;82.58;99389.88;6245810;23;20249;-91
2022/12/01 08:44:32;;;;;;;1.60;1.00;;;;;;;8.05;81.73;99387.03;6245789;23;20561;-90
2022/12/01 08:46:57;;;;;;;4.07;1.10;;;;;;;7.98;82.07;99389.94;6246172;22;20547;-90
2022/12/01 08:49:23;;;;;;;2.00;1.10;;;;;;;7.95;82.20;99388.28;6245953;22;20569;-90
2022/12/01 08:51:48;;;;;;;3.13;1.20;;;;;;;8.03;82.41;99385.38;6245836;23;20166;-89
2022/12/01 08:54:14;;;;;;;5.13;1.50;;;;;;;8.16;81.89;99385.75;6244607;23;20186;-90
2022/12/01 08:56:41;;;;;;;0.90;0.67;;;;;;;8.22;81.33;99380.31;6245926;22;20145;-91
2022/12/01 08:59:07;;;;;;;2.70;1.10;;;;;;;7.99;82.16;99373.38;6245077;23;20162;-90
2022/12/01 09:01:34;;;;;;;0.63;0.57;;;;;;;8.14;81.63;99374.53;6244506;23;20184;-90
2022/12/01 09:04:04;;;;;;;2.40;1.20;;;;;;;8.10;81.48;99373.78;6245761;22;20161;-90
2022/12/01 09:06:31;;;;;;;1.97;1.33;;;;;;;8.03;81.94;99364.50;6245931;23;20153;-90
2022/12/01 09:08:59;;;;;;;1.13;0.77;;;;;;;7.79;82.47;99361.06;6244678;23;20204;-91
2022/12/01 09:11:24;;;;;;;1.60;0.87;;;;;;;7.88;82.38;99357.28;6244766;23;20149;-90
2022/12/01 09:13:50;;;;;;;1.37;0.77;;;;;;;7.92;82.32;99351.88;6245758;22;20161;-90
2022/12/01 09:16:17;;;;;;;1.97;1.20;;;;;;;7.86;82.95;99346.88;6244545;23;20573;-90
2022/12/01 09:18:44;;;;;;;1.77;1.00;;;;;;;7.83;83.23;99347.03;6244483;23;20565;-90
2022/12/01 09:21:24;;;;;;;3.60;1.20;;;;;;;7.99;82.32;99340.28;6219203;23;20166;-90
2022/12/01 09:23:50;;;;;;;2.60;1.50;;;;;;;8.01;82.04;99351.53;6219322;23;20146;-90
2022/12/01 09:26:18;;;;;;;4.00;1.00;;;;;;;7.82;82.52;99342.69;6245630;23;20474;-91
2022/12/01 09:28:51;;;;;;;1.83;1.00;;;;;;;7.77;83.61;99336.81;6244654;23;20157;-91
2022/12/01 09:31:17;;;;;;;0.87;0.70;;;;;;;7.86;83.27;99336.44;6244528;23;20146;-90
2022/12/01 09:33:43;;;;;;;2.10;1.37;;;;;;;8.05;82.37;99340.03;6246994;23;20474;-90
2022/12/01 09:36:09;;;;;;;1.50;0.80;;;;;;;7.93;82.75;99335.31;6247563;23;20587;-90
2022/12/01 09:38:35;;;;;;;2.07;1.03;;;;;;;8.07;82.08;99344.38;6221037;23;20208;-89
2022/12/01 09:41:05;;;;;;;1.53;0.73;;;;;;;8.03;82.62;99338.41;6247652;23;20149;-90
2022/12/01 09:43:44;;;;;;;1.63;0.80;;;;;;;7.94;82.12;99334.38;6246341;23;20168;-90
2022/12/01 09:46:17;;;;;;;0.90;0.57;;;;;;;8.06;81.87;99330.47;6248268;23;20137;-91
2022/12/01 09:48:47;;;;;;;2.60;0.90;;;;;;;7.88;82.75;99333.78;6248203;23;20542;-91
2022/12/01 09:51:14;;;;;;;1.90;1.10;;;;;;;7.82;82.75;99327.03;6247371;23;20145;-91
2022/12/01 09:53:41;;;;;;;2.43;1.93;;;;;;;7.80;83.42;99330.63;6246236;23;20161;-90
2022/12/01 09:56:17;;;;;;;1.17;0.70;;;;;;;7.80;83.69;99328.00;6246265;23;20196;-90
2022/12/01 09:58:43;;;;;;;4.37;1.50;;;;;;;7.96;83.29;99324.75;6247668;23;20137;-90
2022/12/01 10:01:16;;;;;;;0.93;0.70;;;;;;;7.99;83.06;99323.78;6220712;23;20153;-90
2022/12/01 10:03:53;;;;;;;1.63;0.87;;;;;;;7.93;82.43;99324.88;6247617;23;20144;-91
2022/12/01 10:06:31;;;;;;;2.20;0.87;;;;;;;7.83;83.22;99326.13;6221864;23;20145;-90
2022/12/01 10:09:17;;;;;;;1.70;1.00;;;;;;;7.84;83.84;99325.22;6247641;23;20479;-90
2022/12/01 10:11:45;;;;;;;1.80;1.03;;;;;;;7.84;83.39;99320.00;6247630;23;20529;-90
2022/12/01 10:14:17;;;;;;;1.67;0.97;;;;;;;7.99;82.51;99326.41;6220830;23;20483;-89
2022/12/01 10:17:07;;;;;;;5.03;1.10;;;;;;;8.10;82.09;99324.19;6247138;23;20202;-90
2022/12/01 10:19:43;;;;;;;1.97;1.10;;;;;;;8.22;81.88;99317.66;6257479;22;20156;-90
2022/12/01 10:22:22;;;;;;;1.80;1.00;;;;;;;7.95;82.63;99323.03;6251622;22;20548;-90
2022/12/01 10:25:14;;;;;;;1.13;0.70;;;;;;;7.90;83.11;99327.59;6278479;22;20141;-90
2022/12/01 10:28:01;;;;;;;1.50;0.80;;;;;;;7.95;82.64;99322.19;6257869;22;20157;-90
2022/12/01 10:30:26;;;;;;;3.43;1.33;;;;;;;7.99;82.65;99315.97;6251016;22;20152;-91
2022/12/01 10:32:58;;;;;;;2.47;1.20;;;;;;;7.88;82.78;99316.38;6250871;22;20149;-90
2022/12/01 10:35:28;;;;;;;3.60;1.80;;;;;;;7.96;81.98;99322.16;6277926;22;20148;-89
2022/12/01 10:38:00;;;;;;;2.33;1.20;;;;;;;7.99;82.57;99314.16;6251244;22;20156;-89
2022/12/01 10:40:27;;;;;;;1.93;1.27;;;;;;;7.95;83.01;99307.38;6250767;22;20650;-90
2022/12/01 10:42:53;;;;;;;2.13;1.33;;;;;;;7.90;83.45;99301.50;6251039;22;20496;-90
2022/12/01 10:45:25;;;;;;;1.83;1.30;;;;;;;8.01;82.92;99307.16;6277284;22;20576;-90
2022/12/01 10:48:17;;;;;;;2.03;1.17;;;;;;;7.99;83.00;99305.50;6250724;22;20152;-90
2022/12/01 10:50:54;;;;;;;3.10;1.20;;;;;;;8.02;83.30;99303.63;6251159;22;20583;-90
2022/12/01 10:53:22;;;;;;;1.93;1.27;;;;;;;7.98;83.10;99303.81;6278144;22;20129;-89
2022/12/01 10:56:15;;;;;;;2.60;1.20;;;;;;;8.18;82.24;99292.56;6278060;22;20576;-89
2022/12/01 10:58:43;;;;;;;7.47;1.67;;;;;;;8.05;82.29;99282.63;6261973;22;20152;-89
2022/12/01 11:01:22;;;;;;;3.53;1.30;;;;;;;7.89;83.25;99289.34;6277600;22;20227;-90
2022/12/01 11:04:01;;;;;;;1.83;1.13;;;;;;;7.90;83.10;99284.97;6277743;22;20143;-90
2022/12/01 11:06:29;;;;;;;6.20;1.73;;;;;;;7.91;83.25;99281.47;6250647;22;20167;-89
2022/12/01 11:08:58;;;;;;;2.07;1.43;;;;;;;7.89;83.69;99289.34;6277250;22;20148;-89
2022/12/01 11:11:26;;;;;;;2.17;1.57;;;;;;;8.14;83.78;99285.78;6250856;22;20156;-89
2022/12/01 11:13:53;;;;;;;2.60;1.70;;;;;;;8.30;82.42;99289.50;6250452;22;20233;-89
2022/12/01 11:16:43;;;;;;;3.60;2.13;;;;;;;8.24;82.34;99284.47;6250460;22;20519;-89
2022/12/01 11:19:24;;;;;;;2.13;1.30;;;;;;;8.32;81.68;99287.66;6245245;23;20234;-90
2022/12/01 11:21:52;;;;;;;2.67;1.57;;;;;;;8.32;81.76;99282.44;6245247;23;20175;-89
2022/12/01 11:24:45;;;;;;;3.73;1.57;;;;;;;8.19;81.57;99281.22;6245292;23;20188;-89
2022/12/01 11:27:23;;;;;;;4.63;2.47;;;;;;;8.29;81.79;99285.19;6247264;22;20155;-90
2022/12/01 11:29:53;;;;;;;3.40;1.70;;;;;;;8.28;82.07;99281.72;6246873;22;20145;-89
2022/12/01 11:32:21;;;;;;;3.10;2.10;;;;;;;8.41;81.48;99282.06;6245204;23;20153;-90
2022/12/01 11:35:11;;;;;;;4.33;1.70;;;;;;;8.50;80.89;99277.31;6247058;22;20593;-90
2022/12/01 11:37:42;;;;;;;5.70;1.40;;;;;;;8.35;81.24;99282.31;6245161;23;20220;-90
2022/12/01 11:40:24;;;;;;;4.30;1.43;;;;;;;8.29;81.12;99277.34;6245829;23;20158;-89
2022/12/01 11:42:52;;;;;;;3.53;1.60;;;;;;;8.15;81.37;99283.09;6246622;22;20173;-89
2022/12/01 11:45:18;;;;;;;2.70;1.47;;;;;;;8.29;81.65;99277.34;6246917;22;20154;-89
2022/12/01 11:48:00;;;;;;;2.43;1.13;;;;;;;8.45;81.03;99274.03;6246959;22;20161;-90
2022/12/01 11:50:28;;;;;;;4.13;2.00;;;;;;;8.27;81.56;99281.78;6246903;22;20224;-90
2022/12/01 11:52:54;;;;;;;2.03;1.10;;;;;;;8.35;81.45;99277.09;6246327;22;20145;-90
2022/12/01 11:55:22;;;;;;;1.83;1.23;;;;;;;8.38;80.99;99274.38;6246060;22;20603;-90
2022/12/01 11:57:53;;;;;;;3.17;1.20;;;;;;;8.40;81.30;99280.38;6244842;23;20586;-89
2022/12/01 12:00:22;;;;;;;3.30;1.43;;;;;;;8.38;80.86;99270.00;6245026;23;20153;-89